ASA66 PANC-PACV
Flight info
| Callsign | ASA66 |
|---|---|
| Flight time | 0h 33m |
| Altitude | 21000 |
| Route | NOEND JOH |
| Aircraft | E75L/M-SDE3GILORVW/S |
Departure
| Time | 2026-05-06 17:41 |
|---|---|
| Airport | Ted Stevens Anchorage International Airport (PANC) |
Arrival
| Time | 2026-05-06 18:14 |
|---|---|
| Airport | Merle K (Mudhole) Smith Airport (PACV) |
| Time | Latitude | Longitude | Altitude | Speed | Heading |
|---|---|---|---|---|---|
| 2026-05-06 17:23 | 61.17308 | -149.98491 | 158 ft | 0 kts | 126° |
| 2026-05-06 17:33 | 61.17316 | -149.98515 | 158 ft | 2 kts | 126° |
| 2026-05-06 17:33 | 61.17325 | -149.98540 | 158 ft | 2 kts | 126° |
| 2026-05-06 17:33 | 61.17334 | -149.98566 | 158 ft | 2 kts | 126° |
| 2026-05-06 17:34 | 61.17342 | -149.98590 | 158 ft | 2 kts | 126° |
| 2026-05-06 17:34 | 61.17352 | -149.98614 | 158 ft | 2 kts | 140° |
| 2026-05-06 17:34 | 61.17365 | -149.98627 | 158 ft | 2 kts | 173° |
| 2026-05-06 17:34 | 61.17379 | -149.98622 | 157 ft | 2 kts | 206° |
| 2026-05-06 17:35 | 61.17384 | -149.98616 | 158 ft | 0 kts | 214° |
| 2026-05-06 17:36 | 61.17384 | -149.98618 | 157 ft | 0 kts | 214° |
| 2026-05-06 17:36 | 61.17347 | -149.98668 | 157 ft | 12 kts | 212° |
| 2026-05-06 17:37 | 61.17249 | -149.98801 | 157 ft | 18 kts | 214° |
| 2026-05-06 17:37 | 61.17157 | -149.98970 | 158 ft | 12 kts | 204° |
| 2026-05-06 17:37 | 61.17123 | -149.98798 | 157 ft | 19 kts | 90° |
| 2026-05-06 17:37 | 61.17121 | -149.98457 | 157 ft | 26 kts | 91° |
| 2026-05-06 17:38 | 61.17120 | -149.98053 | 157 ft | 29 kts | 90° |
| 2026-05-06 17:38 | 61.17120 | -149.97612 | 157 ft | 31 kts | 90° |
| 2026-05-06 17:38 | 61.17123 | -149.97151 | 157 ft | 32 kts | 88° |
| 2026-05-06 17:38 | 61.17125 | -149.96674 | 157 ft | 33 kts | 90° |
| 2026-05-06 17:39 | 61.17126 | -149.96202 | 157 ft | 28 kts | 90° |
| 2026-05-06 17:39 | 61.17126 | -149.95785 | 157 ft | 29 kts | 89° |
| 2026-05-06 17:39 | 61.17128 | -149.95358 | 157 ft | 30 kts | 90° |
| 2026-05-06 17:39 | 61.17122 | -149.94923 | 157 ft | 27 kts | 106° |
| 2026-05-06 17:40 | 61.17011 | -149.94842 | 157 ft | 16 kts | 183° |
| 2026-05-06 17:40 | 61.16980 | -149.94923 | 157 ft | 9 kts | 269° |
| 2026-05-06 17:40 | 61.16980 | -149.95312 | 157 ft | 58 kts | 271° |
| 2026-05-06 17:40 | 61.16980 | -149.96609 | 157 ft | 121 kts | 270° |
| 2026-05-06 17:41 | 61.16978 | -149.98673 | 358 ft | 153 kts | 270° |
| 2026-05-06 17:41 | 61.16965 | -150.00943 | 948 ft | 163 kts | 269° |
| 2026-05-06 17:41 | 61.16945 | -150.03232 | 1690 ft | 155 kts | 269° |
| 2026-05-06 17:41 | 61.16923 | -150.05542 | 2285 ft | 173 kts | 269° |
| 2026-05-06 17:42 | 61.16721 | -150.08199 | 2667 ft | 205 kts | 240° |
| 2026-05-06 17:42 | 61.15622 | -150.10178 | 3223 ft | 225 kts | 196° |
| 2026-05-06 17:42 | 61.14008 | -150.10684 | 3782 ft | 248 kts | 179° |
| 2026-05-06 17:42 | 61.12347 | -150.09605 | 4512 ft | 261 kts | 142° |
| 2026-05-06 17:43 | 61.11319 | -150.06642 | 5461 ft | 266 kts | 107° |
| 2026-05-06 17:43 | 61.10801 | -150.03011 | 6527 ft | 266 kts | 111° |
| 2026-05-06 17:43 | 61.10173 | -149.99464 | 7525 ft | 268 kts | 110° |
| 2026-05-06 17:43 | 61.09550 | -149.95840 | 8450 ft | 272 kts | 109° |
| 2026-05-06 17:44 | 61.08929 | -149.92142 | 9335 ft | 277 kts | 109° |
| 2026-05-06 17:44 | 61.08308 | -149.88438 | 10209 ft | 280 kts | 109° |
| 2026-05-06 17:44 | 61.07658 | -149.84572 | 11027 ft | 287 kts | 109° |
| 2026-05-06 17:44 | 61.06998 | -149.80652 | 11708 ft | 297 kts | 109° |
| 2026-05-06 17:45 | 61.06309 | -149.76569 | 12329 ft | 309 kts | 109° |
| 2026-05-06 17:45 | 61.05600 | -149.72374 | 13011 ft | 317 kts | 109° |
| 2026-05-06 17:45 | 61.04864 | -149.68042 | 13806 ft | 322 kts | 109° |
| 2026-05-06 17:45 | 61.04123 | -149.63687 | 14627 ft | 326 kts | 109° |
| 2026-05-06 17:46 | 61.03375 | -149.59293 | 15455 ft | 328 kts | 109° |
| 2026-05-06 17:46 | 61.02615 | -149.54842 | 16263 ft | 332 kts | 109° |
| 2026-05-06 17:46 | 61.01846 | -149.50348 | 17037 ft | 335 kts | 109° |
| 2026-05-06 17:46 | 61.01070 | -149.45830 | 17778 ft | 340 kts | 109° |
| 2026-05-06 17:47 | 61.00284 | -149.41261 | 18500 ft | 344 kts | 109° |
| 2026-05-06 17:47 | 60.99481 | -149.36600 | 19230 ft | 348 kts | 109° |
| 2026-05-06 17:47 | 60.98668 | -149.31898 | 19955 ft | 352 kts | 110° |
| 2026-05-06 17:47 | 60.97853 | -149.27191 | 20652 ft | 355 kts | 110° |
| 2026-05-06 17:48 | 60.97010 | -149.22342 | 20826 ft | 370 kts | 110° |
| 2026-05-06 17:48 | 60.96112 | -149.17189 | 20856 ft | 383 kts | 110° |
| 2026-05-06 17:48 | 60.95223 | -149.12096 | 20865 ft | 384 kts | 110° |
| 2026-05-06 17:48 | 60.94315 | -149.06912 | 20866 ft | 383 kts | 110° |
| 2026-05-06 17:49 | 60.93416 | -149.01793 | 20879 ft | 383 kts | 110° |
| 2026-05-06 17:49 | 60.92513 | -148.96666 | 20884 ft | 383 kts | 110° |
| 2026-05-06 17:49 | 60.91605 | -148.91521 | 20879 ft | 382 kts | 110° |
| 2026-05-06 17:49 | 60.90702 | -148.86426 | 20871 ft | 382 kts | 110° |
| 2026-05-06 17:50 | 60.89799 | -148.81337 | 20862 ft | 381 kts | 110° |
| 2026-05-06 17:50 | 60.88891 | -148.76237 | 20847 ft | 382 kts | 110° |
| 2026-05-06 17:50 | 60.87980 | -148.71129 | 20843 ft | 382 kts | 110° |
| 2026-05-06 17:50 | 60.87061 | -148.65997 | 20853 ft | 383 kts | 110° |
| 2026-05-06 17:51 | 60.86149 | -148.60915 | 20862 ft | 381 kts | 110° |
| 2026-05-06 17:51 | 60.85231 | -148.55814 | 20875 ft | 382 kts | 111° |
| 2026-05-06 17:51 | 60.84315 | -148.50735 | 20886 ft | 382 kts | 110° |
| 2026-05-06 17:51 | 60.83388 | -148.45615 | 20900 ft | 382 kts | 110° |
| 2026-05-06 17:52 | 60.82471 | -148.40556 | 20922 ft | 382 kts | 110° |
| 2026-05-06 17:52 | 60.81541 | -148.35445 | 20938 ft | 381 kts | 110° |
| 2026-05-06 17:52 | 60.80613 | -148.30357 | 20960 ft | 381 kts | 111° |
| 2026-05-06 17:52 | 60.79695 | -148.25336 | 20966 ft | 381 kts | 111° |
| 2026-05-06 17:53 | 60.78758 | -148.20226 | 20965 ft | 381 kts | 111° |
| 2026-05-06 17:53 | 60.77826 | -148.15150 | 20980 ft | 381 kts | 111° |
| 2026-05-06 17:53 | 60.76897 | -148.10115 | 20988 ft | 380 kts | 111° |
| 2026-05-06 17:53 | 60.75961 | -148.05049 | 20975 ft | 381 kts | 112° |
| 2026-05-06 17:54 | 60.75021 | -147.99974 | 20984 ft | 381 kts | 112° |
| 2026-05-06 17:54 | 60.74092 | -147.94975 | 20972 ft | 382 kts | 111° |
| 2026-05-06 17:54 | 60.73148 | -147.89905 | 20971 ft | 381 kts | 111° |
| 2026-05-06 17:54 | 60.72205 | -147.84853 | 20970 ft | 381 kts | 111° |
| 2026-05-06 17:55 | 60.71267 | -147.79839 | 20973 ft | 380 kts | 111° |
| 2026-05-06 17:55 | 60.70323 | -147.74812 | 20968 ft | 380 kts | 111° |
| 2026-05-06 17:55 | 60.69377 | -147.69781 | 20971 ft | 380 kts | 111° |
| 2026-05-06 17:55 | 60.68417 | -147.64696 | 20974 ft | 380 kts | 111° |
| 2026-05-06 17:56 | 60.67469 | -147.59685 | 20972 ft | 380 kts | 111° |
| 2026-05-06 17:56 | 60.66531 | -147.54736 | 20967 ft | 380 kts | 111° |
| 2026-05-06 17:56 | 60.65575 | -147.49704 | 20963 ft | 380 kts | 112° |
| 2026-05-06 17:56 | 60.64613 | -147.44659 | 20959 ft | 381 kts | 112° |
| 2026-05-06 17:57 | 60.63655 | -147.39647 | 20958 ft | 381 kts | 112° |
| 2026-05-06 17:57 | 60.62699 | -147.34654 | 20960 ft | 381 kts | 113° |
| 2026-05-06 17:57 | 60.61731 | -147.29616 | 20958 ft | 381 kts | 113° |
| 2026-05-06 17:57 | 60.60777 | -147.24658 | 20957 ft | 381 kts | 113° |
| 2026-05-06 17:58 | 60.59807 | -147.19635 | 20964 ft | 380 kts | 112° |
| 2026-05-06 17:58 | 60.58849 | -147.14688 | 20958 ft | 380 kts | 112° |
| 2026-05-06 17:58 | 60.57874 | -147.09662 | 20953 ft | 380 kts | 112° |
| 2026-05-06 17:58 | 60.56910 | -147.04703 | 20949 ft | 380 kts | 112° |
| 2026-05-06 17:59 | 60.55938 | -146.99716 | 20950 ft | 380 kts | 112° |
| 2026-05-06 17:59 | 60.54974 | -146.94788 | 20948 ft | 379 kts | 112° |
| 2026-05-06 17:59 | 60.54005 | -146.89844 | 20931 ft | 370 kts | 113° |
| 2026-05-06 17:59 | 60.53055 | -146.85005 | 20943 ft | 366 kts | 113° |
| 2026-05-06 18:00 | 60.52091 | -146.80243 | 20951 ft | 366 kts | 114° |
| 2026-05-06 18:00 | 60.51113 | -146.75487 | 20943 ft | 366 kts | 112° |
| 2026-05-06 18:00 | 60.50194 | -146.70642 | 20954 ft | 367 kts | 112° |
| 2026-05-06 18:00 | 60.49264 | -146.65871 | 20944 ft | 367 kts | 113° |
| 2026-05-06 18:01 | 60.48336 | -146.61163 | 20932 ft | 349 kts | 112° |
| 2026-05-06 18:01 | 60.47713 | -146.56558 | 20824 ft | 330 kts | 104° |
| 2026-05-06 18:01 | 60.47235 | -146.52165 | 20658 ft | 322 kts | 104° |
| 2026-05-06 18:01 | 60.46720 | -146.47505 | 20457 ft | 355 kts | 104° |
| 2026-05-06 18:02 | 60.46170 | -146.42541 | 19919 ft | 365 kts | 104° |
| 2026-05-06 18:02 | 60.45619 | -146.37587 | 19390 ft | 364 kts | 104° |
| 2026-05-06 18:02 | 60.45060 | -146.32587 | 18834 ft | 359 kts | 104° |
| 2026-05-06 18:02 | 60.44513 | -146.27708 | 18278 ft | 354 kts | 105° |
| 2026-05-06 18:03 | 60.43970 | -146.22884 | 17717 ft | 351 kts | 105° |
| 2026-05-06 18:03 | 60.43433 | -146.18133 | 17172 ft | 347 kts | 105° |
| 2026-05-06 18:03 | 60.42904 | -146.13470 | 16625 ft | 341 kts | 105° |
| 2026-05-06 18:03 | 60.42378 | -146.08852 | 15924 ft | 336 kts | 105° |
| 2026-05-06 18:04 | 60.41858 | -146.04297 | 15132 ft | 333 kts | 105° |
| 2026-05-06 18:04 | 60.41340 | -145.99773 | 14373 ft | 331 kts | 105° |
| 2026-05-06 18:04 | 60.40820 | -145.95256 | 13738 ft | 330 kts | 105° |
| 2026-05-06 18:04 | 60.40307 | -145.90805 | 13082 ft | 326 kts | 105° |
| 2026-05-06 18:05 | 60.39790 | -145.86342 | 12443 ft | 322 kts | 105° |
| 2026-05-06 18:05 | 60.39285 | -145.81988 | 11794 ft | 318 kts | 105° |
| 2026-05-06 18:05 | 60.38795 | -145.77699 | 11143 ft | 313 kts | 105° |
| 2026-05-06 18:05 | 60.38301 | -145.73514 | 10496 ft | 307 kts | 105° |
| 2026-05-06 18:06 | 60.37814 | -145.69371 | 9842 ft | 303 kts | 106° |
| 2026-05-06 18:06 | 60.37334 | -145.65289 | 9306 ft | 295 kts | 105° |
| 2026-05-06 18:06 | 60.36862 | -145.61366 | 8788 ft | 288 kts | 106° |
| 2026-05-06 18:06 | 60.36365 | -145.57483 | 8271 ft | 281 kts | 106° |
| 2026-05-06 18:07 | 60.35874 | -145.53732 | 7760 ft | 275 kts | 106° |
| 2026-05-06 18:07 | 60.35396 | -145.50075 | 7256 ft | 270 kts | 106° |
| 2026-05-06 18:07 | 60.34914 | -145.46462 | 6743 ft | 265 kts | 106° |
| 2026-05-06 18:07 | 60.34429 | -145.42914 | 6214 ft | 261 kts | 106° |
| 2026-05-06 18:08 | 60.33947 | -145.39416 | 5713 ft | 258 kts | 106° |
| 2026-05-06 18:08 | 60.33467 | -145.35960 | 5208 ft | 255 kts | 105° |
| 2026-05-06 18:08 | 60.33323 | -145.32445 | 4702 ft | 253 kts | 86° |
| 2026-05-06 18:08 | 60.33528 | -145.28935 | 4224 ft | 251 kts | 85° |
| 2026-05-06 18:09 | 60.33740 | -145.25478 | 3726 ft | 249 kts | 85° |
| 2026-05-06 18:09 | 60.33986 | -145.22049 | 3228 ft | 248 kts | 76° |
| 2026-05-06 18:09 | 60.34938 | -145.19276 | 2998 ft | 242 kts | 36° |
| 2026-05-06 18:09 | 60.36455 | -145.18097 | 2972 ft | 228 kts | 17° |
| 2026-05-06 18:10 | 60.37947 | -145.17362 | 2947 ft | 216 kts | 15° |
| 2026-05-06 18:10 | 60.39431 | -145.17625 | 2983 ft | 222 kts | 339° |
| 2026-05-06 18:10 | 60.40897 | -145.18622 | 2976 ft | 224 kts | 345° |
| 2026-05-06 18:10 | 60.42351 | -145.19780 | 2954 ft | 227 kts | 331° |
| 2026-05-06 18:11 | 60.43426 | -145.22047 | 2966 ft | 229 kts | 295° |
| 2026-05-06 18:11 | 60.43883 | -145.24004 | 3015 ft | 228 kts | 297° |
| 2026-05-06 18:11 | 60.44803 | -145.27896 | 2476 ft | 227 kts | 295° |
| 2026-05-06 18:11 | 60.45418 | -145.30623 | 1900 ft | 208 kts | 295° |
| 2026-05-06 18:12 | 60.45981 | -145.33138 | 1533 ft | 182 kts | 295° |
| 2026-05-06 18:12 | 60.46470 | -145.35323 | 1289 ft | 164 kts | 295° |
| 2026-05-06 18:12 | 60.46920 | -145.37332 | 1017 ft | 151 kts | 295° |
| 2026-05-06 18:12 | 60.47343 | -145.39223 | 781 ft | 144 kts | 295° |
| 2026-05-06 18:13 | 60.47738 | -145.40994 | 575 ft | 132 kts | 295° |
| 2026-05-06 18:13 | 60.48113 | -145.42679 | 440 ft | 131 kts | 294° |
| 2026-05-06 18:13 | 60.48472 | -145.44324 | 269 ft | 127 kts | 296° |
| 2026-05-06 18:13 | 60.48833 | -145.45918 | 60 ft | 125 kts | 295° |
| 2026-05-06 18:14 | 60.49161 | -145.47409 | 19 ft | 97 kts | 296° |
| 2026-05-06 18:14 | 60.49370 | -145.48323 | 18 ft | 44 kts | 294° |
| 2026-05-06 18:14 | 60.49451 | -145.48688 | 18 ft | 18 kts | 295° |
| 2026-05-06 18:14 | 60.49493 | -145.48816 | 19 ft | 8 kts | 34° |
| 2026-05-06 18:15 | 60.49459 | -145.48692 | 18 ft | 14 kts | 129° |
| 2026-05-06 18:15 | 60.49400 | -145.48453 | 18 ft | 23 kts | 115° |
| 2026-05-06 18:15 | 60.49338 | -145.48180 | 18 ft | 26 kts | 116° |
| 2026-05-06 18:15 | 60.49260 | -145.47826 | 18 ft | 27 kts | 113° |
| 2026-05-06 18:16 | 60.49231 | -145.47562 | 18 ft | 15 kts | 34° |
| 2026-05-06 18:16 | 60.49335 | -145.47461 | 19 ft | 17 kts | 27° |
| 2026-05-06 18:16 | 60.49370 | -145.47429 | 19 ft | 5 kts | 25° |
| 2026-05-06 18:16 | 60.49412 | -145.47403 | 19 ft | 4 kts | 340° |
| 2026-05-06 18:17 | 60.49413 | -145.47404 | 19 ft | 0 kts | 336° |